Ana Sayfa
METAR-TAF:

METAR-TAF

Havaalanları :

Twin County Airport

Galax / Hillsville, Virginia, Amerika Birleşik Devletleri

Enlem: 36-46N, Boylam: 080-49W, yükseklik: 834 m

Güncel hava durumu gözlemi

Rapor saat 17:35 UTC de 7 dakika önce yapıldı.
Rüzgar güneydan 8 kt, güney/güneydoğu ve güneybatı arasında değişken
Sıcaklık 19°C
Nem 43%
Basınç 1019 hPa
Görüş mesafesi: 16.1 km
7000 ft yükseklikte parçalı çok bulutlu

METAR: KHLX 051735Z AUTO 19008KT 150V220 10SM BKN070 19/06 A3008 RMK AO2 T01860063

Saat: 13:42 (17:42 UTC)


TAF: eksik

4.000'den fazla havaalanı için hava durumu gözlemleri ve tahminleri (METAR ve TAF raporları).

Kullanılabilir istasyonlar harita üzerinde sarı ve kırmızı noktalarla gösterilir.

İstasyonun adını görmek için fareyi noktanın üzerinde gezdirin.

Sonrasında hava gözlem ve tahminlerini görmek için tıklayın.

Haritayı değiştirmek için: yaklaştırmak için siyah artı işaretli yeşil düğmeye ve uzaklaştırmak için de eksi işaretli düğmeye hızla tıklayın; bitişik haritalar için yeşil okları kullanın.


METAR-TAF: